WMT9984 LHBP-LIMC
Flight info
| Callsign | WMT9984 |
|---|---|
| Flight time | N/A |
| Altitude | 34000 |
| Route | DUZLA DCT SUNIS DCT DETSA DCT NAXAV DCT RENTA DCT ATPED DCT LUSIL DCT EVRIP |
| Aircraft | A321/M-SDE3FGHIRWY/LB1 |
Departure
| Time | N/A |
|---|---|
| Airport | Budapest Liszt Ferenc International Airport (LHBP) |
Arrival
| Time | 2026-05-03 21:12 |
|---|---|
| Airport | Milan Malpensa International Airport (LIMC) |
| Time | Latitude | Longitude | Altitude | Speed | Heading |
|---|---|---|---|---|---|
| 2026-05-03 20:15 | 47.10719 | 15.83559 | 34100 ft | 445 kts | 267° |
| 2026-05-03 20:15 | 47.10092 | 15.74530 | 34114 ft | 445 kts | 266° |
| 2026-05-03 20:16 | 47.09452 | 15.65544 | 34110 ft | 445 kts | 266° |
| 2026-05-03 20:16 | 47.08804 | 15.56518 | 34128 ft | 445 kts | 266° |
| 2026-05-03 20:17 | 47.08152 | 15.47496 | 34131 ft | 444 kts | 266° |
| 2026-05-03 20:17 | 47.07490 | 15.38487 | 34129 ft | 444 kts | 266° |
| 2026-05-03 20:18 | 47.06817 | 15.29487 | 34126 ft | 444 kts | 266° |
| 2026-05-03 20:18 | 47.06142 | 15.20500 | 34121 ft | 443 kts | 266° |
| 2026-05-03 20:19 | 47.05459 | 15.11511 | 34117 ft | 443 kts | 266° |
| 2026-05-03 20:19 | 47.04766 | 15.02513 | 34114 ft | 443 kts | 265° |
| 2026-05-03 20:20 | 47.03952 | 14.93615 | 34115 ft | 444 kts | 262° |
| 2026-05-03 20:20 | 47.02734 | 14.84741 | 34119 ft | 444 kts | 260° |
| 2026-05-03 20:21 | 47.01416 | 14.75888 | 34115 ft | 444 kts | 259° |
| 2026-05-03 20:21 | 47.00116 | 14.67058 | 34114 ft | 443 kts | 260° |
| 2026-05-03 20:22 | 46.98839 | 14.58232 | 34109 ft | 443 kts | 260° |
| 2026-05-03 20:22 | 46.97563 | 14.49413 | 34097 ft | 442 kts | 259° |
| 2026-05-03 20:23 | 46.96268 | 14.40603 | 34087 ft | 442 kts | 259° |
| 2026-05-03 20:23 | 46.94977 | 14.31879 | 34093 ft | 442 kts | 259° |
| 2026-05-03 20:24 | 46.93672 | 14.23051 | 34094 ft | 441 kts | 259° |
| 2026-05-03 20:24 | 46.92369 | 14.14275 | 34094 ft | 441 kts | 259° |
| 2026-05-03 20:25 | 46.91063 | 14.05548 | 34097 ft | 441 kts | 259° |
| 2026-05-03 20:25 | 46.89750 | 13.96796 | 34102 ft | 441 kts | 259° |
| 2026-05-03 20:26 | 46.88426 | 13.88033 | 34104 ft | 441 kts | 258° |
| 2026-05-03 20:26 | 46.87085 | 13.79298 | 34108 ft | 440 kts | 258° |
| 2026-05-03 20:27 | 46.85745 | 13.70580 | 34108 ft | 439 kts | 258° |
| 2026-05-03 20:27 | 46.84404 | 13.61865 | 34107 ft | 438 kts | 258° |
| 2026-05-03 20:28 | 46.83059 | 13.53177 | 34112 ft | 438 kts | 258° |
| 2026-05-03 20:28 | 46.81717 | 13.44559 | 34119 ft | 437 kts | 258° |
| 2026-05-03 20:29 | 46.80370 | 13.35909 | 34119 ft | 437 kts | 258° |
| 2026-05-03 20:29 | 46.79015 | 13.27270 | 34125 ft | 436 kts | 258° |
| 2026-05-03 20:30 | 46.77649 | 13.18657 | 34123 ft | 435 kts | 258° |
| 2026-05-03 20:30 | 46.76283 | 13.10098 | 34121 ft | 435 kts | 258° |
| 2026-05-03 20:31 | 46.74906 | 13.01502 | 34128 ft | 434 kts | 258° |
| 2026-05-03 20:31 | 46.73529 | 12.92942 | 34127 ft | 434 kts | 258° |
| 2026-05-03 20:32 | 46.72154 | 12.84377 | 34125 ft | 433 kts | 258° |
| 2026-05-03 20:32 | 46.70772 | 12.75836 | 34123 ft | 433 kts | 258° |
| 2026-05-03 20:33 | 46.69380 | 12.67307 | 34136 ft | 432 kts | 257° |
| 2026-05-03 20:33 | 46.67990 | 12.58850 | 34154 ft | 432 kts | 257° |
| 2026-05-03 20:34 | 46.66592 | 12.50336 | 34170 ft | 431 kts | 257° |
| 2026-05-03 20:34 | 46.65184 | 12.41851 | 34186 ft | 431 kts | 257° |
| 2026-05-03 20:35 | 46.63761 | 12.33354 | 34194 ft | 431 kts | 257° |
| 2026-05-03 20:35 | 46.62346 | 12.24910 | 34200 ft | 431 kts | 257° |
| 2026-05-03 20:36 | 46.60927 | 12.16423 | 34190 ft | 431 kts | 257° |
| 2026-05-03 20:36 | 46.59498 | 12.07944 | 34174 ft | 432 kts | 257° |
| 2026-05-03 20:37 | 46.58058 | 11.99464 | 34157 ft | 432 kts | 257° |
| 2026-05-03 20:37 | 46.56613 | 11.90985 | 34140 ft | 432 kts | 257° |
| 2026-05-03 20:38 | 46.55164 | 11.82565 | 34121 ft | 432 kts | 257° |
| 2026-05-03 20:38 | 46.53702 | 11.74112 | 34108 ft | 432 kts | 257° |
| 2026-05-03 20:39 | 46.52241 | 11.65654 | 34099 ft | 431 kts | 257° |
| 2026-05-03 20:39 | 46.50778 | 11.57208 | 34093 ft | 431 kts | 256° |
| 2026-05-03 20:40 | 46.49312 | 11.48816 | 34087 ft | 431 kts | 256° |
| 2026-05-03 20:40 | 46.47831 | 11.40390 | 34079 ft | 430 kts | 256° |
| 2026-05-03 20:41 | 46.46234 | 11.32030 | 34079 ft | 430 kts | 249° |
| 2026-05-03 20:41 | 46.43649 | 11.24211 | 34081 ft | 430 kts | 244° |
| 2026-05-03 20:42 | 46.40978 | 11.16458 | 34268 ft | 429 kts | 244° |
| 2026-05-03 20:42 | 46.38324 | 11.08759 | 34269 ft | 429 kts | 244° |
| 2026-05-03 20:43 | 46.35652 | 11.01033 | 34274 ft | 428 kts | 244° |
| 2026-05-03 20:43 | 46.32980 | 10.93326 | 34271 ft | 428 kts | 244° |
| 2026-05-03 20:44 | 46.30302 | 10.85636 | 34260 ft | 427 kts | 244° |
| 2026-05-03 20:44 | 46.27651 | 10.78007 | 34254 ft | 426 kts | 244° |
| 2026-05-03 20:45 | 46.24995 | 10.70366 | 34239 ft | 425 kts | 244° |
| 2026-05-03 20:45 | 46.22340 | 10.62753 | 34229 ft | 424 kts | 244° |
| 2026-05-03 20:45 | 46.21014 | 10.58963 | 34028 ft | 421 kts | 243° |
| 2026-05-03 20:46 | 46.19689 | 10.55182 | 33364 ft | 421 kts | 243° |
| 2026-05-03 20:46 | 46.18362 | 10.51403 | 32631 ft | 423 kts | 243° |
| 2026-05-03 20:46 | 46.17027 | 10.47611 | 31919 ft | 425 kts | 243° |
| 2026-05-03 20:46 | 46.15684 | 10.43802 | 31204 ft | 427 kts | 243° |
| 2026-05-03 20:47 | 46.14338 | 10.39979 | 30582 ft | 427 kts | 243° |
| 2026-05-03 20:47 | 46.12995 | 10.36164 | 30051 ft | 424 kts | 243° |
| 2026-05-03 20:47 | 46.11659 | 10.32376 | 29323 ft | 424 kts | 243° |
| 2026-05-03 20:47 | 46.10338 | 10.28640 | 28677 ft | 422 kts | 243° |
| 2026-05-03 20:48 | 46.09008 | 10.24885 | 28056 ft | 419 kts | 243° |
| 2026-05-03 20:48 | 46.07685 | 10.21161 | 27473 ft | 416 kts | 243° |
| 2026-05-03 20:48 | 46.06365 | 10.17462 | 26908 ft | 413 kts | 243° |
| 2026-05-03 20:48 | 46.05060 | 10.13801 | 26339 ft | 410 kts | 243° |
| 2026-05-03 20:49 | 46.03766 | 10.10153 | 25783 ft | 408 kts | 243° |
| 2026-05-03 20:49 | 46.02512 | 10.06505 | 25242 ft | 405 kts | 244° |
| 2026-05-03 20:49 | 46.01294 | 10.02870 | 24713 ft | 402 kts | 244° |
| 2026-05-03 20:49 | 46.00092 | 9.99237 | 24201 ft | 399 kts | 245° |
| 2026-05-03 20:50 | 45.98899 | 9.95636 | 23694 ft | 397 kts | 245° |
| 2026-05-03 20:50 | 45.97713 | 9.92076 | 23124 ft | 394 kts | 244° |
| 2026-05-03 20:50 | 45.96521 | 9.88528 | 22559 ft | 391 kts | 244° |
| 2026-05-03 20:50 | 45.95353 | 9.85069 | 22038 ft | 388 kts | 244° |
| 2026-05-03 20:51 | 45.94173 | 9.81584 | 21521 ft | 385 kts | 244° |
| 2026-05-03 20:51 | 45.93003 | 9.78138 | 21031 ft | 383 kts | 244° |
| 2026-05-03 20:51 | 45.91836 | 9.74711 | 20566 ft | 380 kts | 244° |
| 2026-05-03 20:51 | 45.90678 | 9.71312 | 20105 ft | 378 kts | 244° |
| 2026-05-03 20:52 | 45.89529 | 9.67936 | 19649 ft | 375 kts | 244° |
| 2026-05-03 20:52 | 45.88387 | 9.64580 | 19208 ft | 372 kts | 244° |
| 2026-05-03 20:52 | 45.87249 | 9.61249 | 18729 ft | 370 kts | 244° |
| 2026-05-03 20:52 | 45.86503 | 9.59053 | 18410 ft | 369 kts | 244° |
| 2026-05-03 20:53 | 45.85382 | 9.55747 | 17885 ft | 367 kts | 244° |
| 2026-05-03 20:53 | 45.84272 | 9.52465 | 17391 ft | 364 kts | 244° |
| 2026-05-03 20:53 | 45.82818 | 9.48134 | 16731 ft | 361 kts | 244° |
| 2026-05-03 20:53 | 45.81740 | 9.44903 | 16224 ft | 358 kts | 244° |
| 2026-05-03 20:54 | 45.81022 | 9.42732 | 15899 ft | 356 kts | 244° |
| 2026-05-03 20:54 | 45.78943 | 9.36394 | 14950 ft | 352 kts | 244° |
| 2026-05-03 20:54 | 45.77915 | 9.33224 | 14486 ft | 349 kts | 243° |
| 2026-05-03 20:55 | 45.76584 | 9.30384 | 14011 ft | 343 kts | 224° |
| 2026-05-03 20:55 | 45.74771 | 9.28193 | 13457 ft | 340 kts | 215° |
| 2026-05-03 20:55 | 45.72844 | 9.26270 | 13052 ft | 334 kts | 214° |
| 2026-05-03 20:55 | 45.70940 | 9.24405 | 12659 ft | 329 kts | 214° |
| 2026-05-03 20:56 | 45.69070 | 9.22574 | 12266 ft | 323 kts | 214° |
| 2026-05-03 20:56 | 45.67229 | 9.20769 | 11857 ft | 319 kts | 214° |
| 2026-05-03 20:56 | 45.65413 | 9.18987 | 11481 ft | 315 kts | 214° |
| 2026-05-03 20:56 | 45.63619 | 9.17224 | 11111 ft | 311 kts | 214° |
| 2026-05-03 20:57 | 45.61848 | 9.15481 | 10745 ft | 307 kts | 214° |
| 2026-05-03 20:57 | 45.60108 | 9.13767 | 10491 ft | 300 kts | 214° |
| 2026-05-03 20:57 | 45.58416 | 9.12096 | 10255 ft | 293 kts | 214° |
| 2026-05-03 20:57 | 45.56759 | 9.10456 | 10046 ft | 286 kts | 214° |
| 2026-05-03 20:58 | 45.55148 | 9.08859 | 9840 ft | 278 kts | 214° |
| 2026-05-03 20:58 | 45.53571 | 9.07295 | 9502 ft | 275 kts | 214° |
| 2026-05-03 20:58 | 45.52024 | 9.05761 | 9143 ft | 274 kts | 214° |
| 2026-05-03 20:58 | 45.50357 | 9.04513 | 8770 ft | 271 kts | 193° |
| 2026-05-03 20:59 | 45.48495 | 9.04416 | 8387 ft | 270 kts | 172° |
| 2026-05-03 20:59 | 45.46646 | 9.04896 | 8052 ft | 268 kts | 169° |
| 2026-05-03 20:59 | 45.44829 | 9.05435 | 7798 ft | 264 kts | 169° |
| 2026-05-03 20:59 | 45.43050 | 9.05966 | 7551 ft | 259 kts | 168° |
| 2026-05-03 21:00 | 45.41301 | 9.06484 | 7307 ft | 255 kts | 169° |
| 2026-05-03 21:00 | 45.40153 | 9.06824 | 7130 ft | 252 kts | 168° |
| 2026-05-03 21:00 | 45.37876 | 9.07461 | 6818 ft | 247 kts | 175° |
| 2026-05-03 21:00 | 45.36208 | 9.07218 | 6602 ft | 238 kts | 199° |
| 2026-05-03 21:01 | 45.34711 | 9.06290 | 6349 ft | 231 kts | 204° |
| 2026-05-03 21:01 | 45.33281 | 9.05362 | 6084 ft | 225 kts | 204° |
| 2026-05-03 21:01 | 45.31876 | 9.04450 | 5834 ft | 220 kts | 204° |
| 2026-05-03 21:01 | 45.30501 | 9.03558 | 5579 ft | 215 kts | 204° |
| 2026-05-03 21:02 | 45.29146 | 9.02680 | 5332 ft | 213 kts | 204° |
| 2026-05-03 21:02 | 45.27800 | 9.01809 | 5079 ft | 212 kts | 203° |
| 2026-05-03 21:02 | 45.26460 | 9.00945 | 4845 ft | 211 kts | 203° |
| 2026-05-03 21:02 | 45.25185 | 8.99937 | 4573 ft | 211 kts | 223° |
| 2026-05-03 21:03 | 45.24478 | 8.98164 | 4431 ft | 207 kts | 259° |
| 2026-05-03 21:03 | 45.24625 | 8.96157 | 4316 ft | 208 kts | 288° |
| 2026-05-03 21:03 | 45.25171 | 8.94250 | 4189 ft | 209 kts | 293° |
| 2026-05-03 21:03 | 45.25774 | 8.92379 | 4087 ft | 209 kts | 294° |
| 2026-05-03 21:04 | 45.26382 | 8.90512 | 3991 ft | 208 kts | 294° |
| 2026-05-03 21:04 | 45.26996 | 8.88643 | 3996 ft | 209 kts | 294° |
| 2026-05-03 21:04 | 45.27666 | 8.86816 | 3974 ft | 209 kts | 307° |
| 2026-05-03 21:04 | 45.28786 | 8.85525 | 4000 ft | 210 kts | 334° |
| 2026-05-03 21:05 | 45.30110 | 8.84633 | 3978 ft | 211 kts | 334° |
| 2026-05-03 21:05 | 45.31433 | 8.83740 | 3996 ft | 211 kts | 334° |
| 2026-05-03 21:05 | 45.32763 | 8.82843 | 3988 ft | 211 kts | 334° |
| 2026-05-03 21:05 | 45.34069 | 8.81958 | 4010 ft | 204 kts | 334° |
| 2026-05-03 21:06 | 45.35352 | 8.81163 | 3985 ft | 200 kts | 341° |
| 2026-05-03 21:06 | 45.36688 | 8.80633 | 3983 ft | 199 kts | 347° |
| 2026-05-03 21:06 | 45.38040 | 8.80225 | 3992 ft | 197 kts | 349° |
| 2026-05-03 21:06 | 45.39319 | 8.79868 | 3983 ft | 182 kts | 349° |
| 2026-05-03 21:07 | 45.40535 | 8.79534 | 3980 ft | 179 kts | 349° |
| 2026-05-03 21:07 | 45.41755 | 8.79199 | 3977 ft | 179 kts | 349° |
| 2026-05-03 21:07 | 45.42974 | 8.78865 | 3992 ft | 177 kts | 349° |
| 2026-05-03 21:07 | 45.44182 | 8.78534 | 3993 ft | 177 kts | 349° |
| 2026-05-03 21:08 | 45.45389 | 8.78203 | 3867 ft | 176 kts | 349° |
| 2026-05-03 21:08 | 45.46593 | 8.77873 | 3663 ft | 175 kts | 349° |
| 2026-05-03 21:08 | 45.47786 | 8.77545 | 3449 ft | 174 kts | 349° |
| 2026-05-03 21:08 | 45.48977 | 8.77218 | 3214 ft | 174 kts | 349° |
| 2026-05-03 21:09 | 45.50159 | 8.76893 | 2988 ft | 172 kts | 348° |
| 2026-05-03 21:09 | 45.51294 | 8.76582 | 2772 ft | 163 kts | 348° |
| 2026-05-03 21:09 | 45.52407 | 8.76276 | 2541 ft | 162 kts | 348° |
| 2026-05-03 21:09 | 45.53514 | 8.75971 | 2336 ft | 162 kts | 347° |
| 2026-05-03 21:10 | 45.54618 | 8.75667 | 2123 ft | 161 kts | 347° |
| 2026-05-03 21:10 | 45.55724 | 8.75363 | 1904 ft | 162 kts | 347° |
| 2026-05-03 21:10 | 45.56826 | 8.75059 | 1689 ft | 161 kts | 347° |
| 2026-05-03 21:10 | 45.57917 | 8.74759 | 1471 ft | 159 kts | 347° |
| 2026-05-03 21:11 | 45.59001 | 8.74460 | 1265 ft | 158 kts | 347° |
| 2026-05-03 21:11 | 45.60076 | 8.74163 | 1047 ft | 157 kts | 347° |
| 2026-05-03 21:11 | 45.61130 | 8.73871 | 835 ft | 156 kts | 347° |
| 2026-05-03 21:11 | 45.62175 | 8.73584 | 722 ft | 141 kts | 347° |
| 2026-05-03 21:12 | 45.63001 | 8.73357 | 729 ft | 97 kts | 349° |
| 2026-05-03 21:12 | 45.63494 | 8.73219 | 741 ft | 46 kts | 346° |
| 2026-05-03 21:12 | 45.63718 | 8.73069 | 746 ft | 29 kts | 323° |
| 2026-05-03 21:12 | 45.63839 | 8.72865 | 746 ft | 20 kts | 303° |
| 2026-05-03 21:13 | 45.63911 | 8.72714 | 750 ft | 14 kts | 304° |
| 2026-05-03 21:13 | 45.63951 | 8.72616 | 751 ft | 9 kts | 282° |
| 2026-05-03 21:13 | 45.63909 | 8.72581 | 750 ft | 10 kts | 180° |
| 2026-05-03 21:13 | 45.63814 | 8.72604 | 749 ft | 17 kts | 172° |
| 2026-05-03 21:14 | 45.63671 | 8.72643 | 746 ft | 24 kts | 169° |
| 2026-05-03 21:14 | 45.63499 | 8.72691 | 743 ft | 25 kts | 169° |
| 2026-05-03 21:14 | 45.63354 | 8.72635 | 743 ft | 22 kts | 213° |
| 2026-05-03 21:14 | 45.63224 | 8.72510 | 743 ft | 23 kts | 213° |
| 2026-05-03 21:15 | 45.63093 | 8.72380 | 742 ft | 22 kts | 219° |
| 2026-05-03 21:15 | 45.63026 | 8.72194 | 741 ft | 22 kts | 259° |
| 2026-05-03 21:15 | 45.63007 | 8.72051 | 740 ft | 14 kts | 258° |
| 2026-05-03 21:15 | 45.62988 | 8.71905 | 740 ft | 15 kts | 261° |
| 2026-05-03 21:16 | 45.62954 | 8.71767 | 739 ft | 14 kts | 217° |
| 2026-05-03 21:16 | 45.62857 | 8.71775 | 737 ft | 12 kts | 171° |
| 2026-05-03 21:16 | 45.62787 | 8.71779 | 736 ft | 6 kts | 224° |
| 2026-05-03 21:16 | 45.62776 | 8.71718 | 736 ft | 7 kts | 259° |
| 2026-05-03 21:17 | 45.62770 | 8.71677 | 734 ft | 0 kts | 259° |